Stations météo

réclame
Mon MeteoGroup
Ell, Pays-Bas (6377): Température de l'air & dewpoint: 16.02.2018 04:00:00 - 22.02.2018 04:00:00 (CET)Ell, Pays-Bas (6377): Température de l'air 5cm: 16.02.2018 04:00:00 - 22.02.2018 04:00:00 (CET)Ell, Pays-Bas (6377): Vitesse du vent & gusts: 16.02.2018 04:00:00 - 22.02.2018 04:00:00 (CET)Ell, Pays-Bas (6377): Direction du vent: 16.02.2018 04:00:00 - 22.02.2018 04:00:00 (CET)Ell, Pays-Bas (6377): visibility: 16.02.2018 04:00:00 - 22.02.2018 04:00:00 (CET)Ell, Pays-Bas (6377): Quantités de précipitations: 16.02.2018 04:00:00 - 22.02.2018 04:00:00 (CET)
Date & Time tt [°C] td [°C] tt 5cm [°C] ff [km/h] ff [knt] fx [km/h] fx [knt] dd vv [km] rr [mm]
22.02.2018 04:00:00 -2,2 -4,7 -3,4 14 7 - - NE 9 -
22.02.2018 03:00:00 -2,2 -4,6 -3,3 11 6 18 10 NE 9 0,0
22.02.2018 02:00:00 -2,1 -4,5 -3,0 11 6 22 12 NE 8 0,0
22.02.2018 01:00:00 -1,6 -4,3 -2,7 14 8 22 12 NNE 9 0,0
22.02.2018 00:00:00 -1,0 -4,1 -2,0 14 8 25 14 NNE 10 0,0
21.02.2018 23:00:00 -1,2 -4,2 -2,7 11 6 18 10 NNE 8 0,0
21.02.2018 22:00:00 -1,1 -4,3 -3,0 11 6 14 8 N 10 0,0
21.02.2018 21:00:00 -0,1 -4,0 -1,6 11 6 18 10 N 10 0,0
21.02.2018 20:00:00 0,1 -4,1 -2,0 11 6 18 10 N 11 0,0
21.02.2018 19:00:00 0,6 -3,9 -1,4 11 6 14 8 N 12 0,0
21.02.2018 18:00:00 1,5 -3,5 -0,1 11 6 25 14 N 13 0,0
21.02.2018 17:00:00 3,4 -3,4 2,9 18 10 29 16 NNE 13 0,0
21.02.2018 16:00:00 4,3 -3,6 4,5 18 10 29 16 N 14 0,0
21.02.2018 15:00:00 4,3 -3,5 5,3 18 10 29 16 N 13 0,0
21.02.2018 14:00:00 4,3 -3,4 5,2 18 10 40 21 NNE 11 0,0
21.02.2018 13:00:00 3,7 -2,9 4,8 14 8 25 14 NNE 10 0,0
21.02.2018 12:00:00 3,1 -2,2 4,1 14 8 22 12 NNE 9 0,0
21.02.2018 11:00:00 1,9 -1,8 2,6 11 6 14 8 NNE 6 0,0
21.02.2018 10:00:00 0,0 -2,6 0,2 11 6 14 8 NNE 4,6 0,0
21.02.2018 09:00:00 -1,6 -3,4 -2,0 11 6 14 8 NNE 3,9 0,0
21.02.2018 08:00:00 -2,6 -4,3 -3,5 11 6 14 8 NNE 4,0 0,0
21.02.2018 07:00:00 -2,7 -4,3 -3,8 11 6 14 8 N 4,2 0,0
21.02.2018 06:00:00 -2,8 -4,5 -4,5 7 4 14 8 NE 4,4 0,0
21.02.2018 05:00:00 -1,9 -3,9 -3,0 11 6 22 12 NNE 5 0,0
21.02.2018 04:00:00 -1,6 -3,8 -2,5 14 8 22 12 NNE 6 0,0
21.02.2018 03:00:00 -1,7 -3,9 -3,2 11 6 18 10 N 6 0,0
21.02.2018 02:00:00 -1,7 -3,8 -3,8 7 4 14 8 N 6 0,0
21.02.2018 01:00:00 -1,2 -3,5 -2,6 11 6 18 10 N 7 0,0
21.02.2018 00:00:00 -0,5 -3,2 -2,2 11 6 18 10 N 7 0,0
20.02.2018 23:00:00 -0,4 -3,0 -1,9 11 6 18 10 N 8 0,0
20.02.2018 22:00:00 0,5 -2,6 -1,1 11 6 18 10 NNE 9 0,0
20.02.2018 21:00:00 1,2 -2,3 -0,5 14 8 22 12 NNE 9 0,0
20.02.2018 20:00:00 1,3 -2,1 -0,7 11 6 18 10 NNE 9 0,0
20.02.2018 19:00:00 3,0 -1,7 1,7 11 6 14 8 NNE 12 0,0
20.02.2018 18:00:00 3,4 -1,1 2,4 7 4 18 10 NNE 12 0,0
20.02.2018 17:00:00 4,3 -1,0 3,7 11 6 18 10 NNE 10 0,0
20.02.2018 16:00:00 4,6 -1,1 4,8 7 4 14 8 N 10 0,0
20.02.2018 15:00:00 4,3 -1,2 5,2 11 6 14 8 NNE 11 0,0
20.02.2018 14:00:00 4,3 -0,5 5,4 7 4 11 6 NW 10 0,0
20.02.2018 13:00:00 4,0 -1,0 5,1 7 4 11 6 ENE 11 0,0
20.02.2018 12:00:00 3,4 -0,6 5,0 4 2 14 8 NE 8 0,0
20.02.2018 11:00:00 1,9 -1,0 2,7 7 4 11 6 NE 7 0,0
20.02.2018 10:00:00 0,8 -1,2 0,9 4 2 11 6 NNE 6 0,0
20.02.2018 09:00:00 -0,4 -1,6 -0,6 7 4 11 6 ENE 4,5 0,0
20.02.2018 08:00:00 -0,9 -2,1 -1,6 11 6 14 8 NE 4,6 0,0
20.02.2018 07:00:00 -1,3 -2,4 -2,4 7 4 7 4 N 4,9 0,0
20.02.2018 06:00:00 -1,6 -2,8 -2,8 4 2 7 4 WNW 6 0,0
20.02.2018 05:00:00 -0,8 -1,8 -2,5 4 2 7 4 N 7 0,0
20.02.2018 04:00:00 -1,1 -2,4 -4,1 4 2 7 4 N 7 0,0
20.02.2018 03:00:00 -0,4 -2,0 -2,3 4 2 4 2 N 7 0,0
20.02.2018 02:00:00 1,1 -1,4 -0,2 4 2 7 4 N 9 0,0
20.02.2018 01:00:00 0,6 -1,0 -0,1 4 2 7 4 ENE 7 0,0
20.02.2018 00:00:00 1,0 -0,4 0,1 4 2 7 4 ENE 7 0,0
19.02.2018 23:00:00 1,0 -0,7 0,1 7 4 7 4 NE 8 0,0
19.02.2018 22:00:00 1,1 -0,6 0,2 4 2 7 4 ENE 8 0,0
19.02.2018 21:00:00 1,5 -0,4 0,5 4 2 7 4 E 7 0,0
19.02.2018 20:00:00 1,7 0,1 0,7 4 2 7 4 E 8 0,0
19.02.2018 19:00:00 2,2 -0,4 1,0 7 4 7 4 E 11 0,0
19.02.2018 18:00:00 2,9 -1,4 1,6 4 2 11 6 SE 13 0,0
19.02.2018 17:00:00 3,8 -0,9 4,0 7 4 11 6 SSE 12 0,0
19.02.2018 16:00:00 3,8 -1,0 4,5 11 6 14 8 SSE 13 0,0
19.02.2018 15:00:00 3,6 -0,6 4,4 11 6 14 8 SSE 13 0,0
19.02.2018 14:00:00 2,7 -1,4 3,5 11 6 14 8 SE 12 0,0
19.02.2018 13:00:00 2,2 -1,3 3,1 7 4 11 6 SSE 11 0,0
19.02.2018 12:00:00 1,5 -1,4 1,8 7 4 14 8 S 10 0,0
19.02.2018 11:00:00 0,6 -1,6 0,4 11 6 14 8 SSE 8 0,0
19.02.2018 10:00:00 0,1 -1,9 -0,1 11 6 14 8 SSE 7 0,0
19.02.2018 09:00:00 -0,9 -1,9 -1,3 4 2 7 4 SSE 6 0,0
19.02.2018 08:00:00 -1,3 -2,5 -1,9 7 4 7 4 SSE 7 0,0
19.02.2018 07:00:00 -1,2 -2,5 -2,4 7 4 7 4 SE 7 0,0
19.02.2018 06:00:00 -1,8 -2,7 -3,0 4 2 7 4 ESE 6 0,0
19.02.2018 05:00:00 -2,5 -2,9 -4,5 4 2 7 4 SE 6 0,0
19.02.2018 04:00:00 -2,8 -3,6 -5,7 4 2 7 4 SSE 6 0,0
19.02.2018 03:00:00 -2,2 -3,1 -5,5 0 0 7 4 N 9 0,0
19.02.2018 02:00:00 -1,5 -3,3 -5,0 7 4 7 4 S 10 0,0
19.02.2018 01:00:00 -2,3 -3,1 -5,5 7 4 7 4 SE 7 0,0
19.02.2018 00:00:00 -1,5 -3,3 -5,2 4 2 11 6 ESE 11 0,0
18.02.2018 23:00:00 -0,8 -2,6 -4,0 7 4 11 6 S 11 0,0
18.02.2018 22:00:00 -1,0 -2,0 -5,3 4 2 7 4 SSE 7 0,0
18.02.2018 21:00:00 0,1 -1,1 -3,7 4 2 7 4 SSW 8 0,0
18.02.2018 20:00:00 0,2 -1,0 -3,8 4 2 11 6 ESE 9 0,0
18.02.2018 19:00:00 1,2 -0,3 -2,5 4 2 11 6 E 9 0,0
18.02.2018 18:00:00 3,6 0,0 0,1 7 4 11 6 ESE 14 0,0
18.02.2018 17:00:00 6,0 0,7 5,5 7 4 18 10 SSE 16 0,0
18.02.2018 16:00:00 7,0 2,2 7,4 7 4 11 6 SSE 16 0,0
18.02.2018 15:00:00 7,1 1,5 7,8 7 4 11 6 SSE 16 0,0
18.02.2018 14:00:00 6,9 1,4 7,9 7 4 14 8 SW 15 0,0
18.02.2018 13:00:00 6,9 2,3 8,0 7 4 18 10 SSW 13 0,0
18.02.2018 12:00:00 5,0 1,2 5,9 7 4 18 10 S 13 0,0
18.02.2018 11:00:00 3,2 0,4 4,2 11 6 14 8 S 11 0,0
18.02.2018 10:00:00 0,8 -1,3 1,3 7 4 11 6 SSE 10 0,0
18.02.2018 09:00:00 -1,6 -2,7 -2,5 7 4 7 4 ESE 8 0,0
18.02.2018 08:00:00 -3,6 -4,4 -6,4 4 2 7 4 ESE 7 0,0
18.02.2018 07:00:00 -2,7 -3,6 -6,5 4 2 7 4 SE 10 0,0
18.02.2018 06:00:00 -2,9 -3,6 -7,2 4 2 7 4 SE 8 0,0
18.02.2018 05:00:00 -3,4 -3,8 -7,4 4 2 7 4 ESE 3,8 0,0
18.02.2018 04:00:00 -3,0 -3,3 -6,6 4 2 7 4 ESE 5 0,0
18.02.2018 03:00:00 -2,7 -3,0 -7,0 4 2 7 4 ESE 6 0,0
18.02.2018 02:00:00 -3,8 -4,0 -7,0 7 4 7 4 ESE 4,0 0,0
18.02.2018 01:00:00 -3,6 -3,8 -7,3 4 2 4 2 E 0,4 0,0
18.02.2018 00:00:00 -2,6 -2,6 -6,5 0 0 4 2 N 1,8 0,0
17.02.2018 23:00:00 -2,4 -2,8 -5,9 0 0 4 2 N 5 0,0
17.02.2018 22:00:00 -1,8 -2,1 -5,6 0 0 4 2 N 5 0,0
17.02.2018 21:00:00 -1,1 -1,7 -3,9 4 2 7 4 N 6 0,0
17.02.2018 20:00:00 -0,2 -2,2 -3,8 4 2 7 4 NE 11 0,0
17.02.2018 19:00:00 0,6 -0,8 -3,4 4 2 4 2 ENE 12 0,0
17.02.2018 18:00:00 3,6 -1,2 -0,2 4 2 11 6 NE 17 0,0
17.02.2018 17:00:00 5,0 -0,2 4,2 11 6 18 10 NE 18 0,0
17.02.2018 16:00:00 6,0 -0,1 5,6 11 6 18 10 NE 18 0,0
17.02.2018 15:00:00 5,9 -1,0 6,0 11 6 14 8 NE 23 0,0
17.02.2018 14:00:00 5,8 -0,9 6,4 7 4 14 8 ENE 18 0,0
17.02.2018 13:00:00 5,7 -0,3 6,6 7 4 14 8 E 17 0,0
17.02.2018 12:00:00 4,0 -0,7 4,0 7 4 14 8 NE 17 0,0
17.02.2018 11:00:00 3,0 0,2 3,6 11 6 18 10 NE 13 0,0
17.02.2018 10:00:00 0,7 -0,8 0,4 7 4 11 6 ENE 11 0,0
17.02.2018 09:00:00 0,1 -1,3 -0,6 7 4 14 8 NE 8 0,0
17.02.2018 08:00:00 -0,3 -1,6 -1,1 7 4 14 8 NE 13 0,0
17.02.2018 07:00:00 -0,3 -1,5 -1,4 11 6 14 8 NE 12 0,0
17.02.2018 06:00:00 -0,8 -1,8 -1,8 7 4 11 6 ENE 13 0,0
17.02.2018 05:00:00 -0,5 -2,0 -2,1 7 4 11 6 ENE 14 0,0
17.02.2018 04:00:00 -1,6 -2,1 -3,3 7 4 11 6 ENE 12 0,0
17.02.2018 03:00:00 -1,7 -2,4 -3,8 4 2 7 4 ENE 11 0,0
17.02.2018 02:00:00 -1,6 -2,2 -3,3 7 4 11 6 ENE 10 0,0
17.02.2018 01:00:00 -2,3 -2,8 -4,7 4 2 7 4 E 4,4 0,0
17.02.2018 00:00:00 -1,9 -2,1 -4,8 0 0 7 4 N 8 0,0
16.02.2018 23:00:00 -2,1 -2,6 -4,5 4 2 7 4 ENE 10 0,0
16.02.2018 22:00:00 -1,6 -2,2 -4,2 4 2 7 4 S 13 0,0
16.02.2018 21:00:00 -1,6 -2,5 -4,1 4 2 7 4 N 16 0,0
16.02.2018 20:00:00 0,7 -1,1 -3,7 4 2 7 4 E 16 0,0
16.02.2018 19:00:00 2,7 -1,0 -2,1 0 0 4 2 N 19 0,0
16.02.2018 18:00:00 5,2 -0,6 1,4 4 2 14 8 W 23 0,0
16.02.2018 17:00:00 6,8 -0,1 6,8 11 6 14 8 WSW 22 0,0
16.02.2018 16:00:00 8,1 -0,5 8,6 11 6 22 12 WSW 28 0,0
16.02.2018 15:00:00 8,2 -0,1 8,2 11 6 25 14 WSW 25 0,0
16.02.2018 14:00:00 7,8 0,3 8,0 18 10 25 14 W 21 0,0
16.02.2018 13:00:00 7,5 1,3 8,7 18 10 29 16 WSW 21 0,0
16.02.2018 12:00:00 6,6 2,7 7,2 14 8 25 14 WSW 15 0,0
16.02.2018 11:00:00 5,1 2,6 5,5 14 8 22 12 SW 13 0,0
16.02.2018 10:00:00 3,3 1,5 3,0 14 8 22 12 WSW 13 0,0
16.02.2018 09:00:00 1,4 0,4 0,0 11 6 18 10 SW 11 0,0
16.02.2018 08:00:00 -0,1 -0,9 -1,4 11 6 18 10 SW 10 0,0
16.02.2018 07:00:00 -0,1 -0,7 -2,0 11 6 14 8 SSW 10 0,0
16.02.2018 06:00:00 0,2 -0,2 -1,6 11 6 14 8 SW 8 0,0
16.02.2018 05:00:00 0,9 0,4 -0,7 14 8 18 10 SSW 7 0,0
16.02.2018 04:00:00 1,5 0,9 -0,2 11 6 18 10 WSW 8 0,0

tt = Température de l'air
td = dewpoint
tt 5cm = Température de l'air 5cm
ff = Vitesse du vent
fx = gusts
dd = Direction du vent
vv = visibility
rr = Quantités de précipitations

stations d'obs. à proximité